createdAt,value
2019-05-17T00:03:53.313Z,40.83
2019-05-17T00:08:56.432Z,40.07
2019-05-17T00:13:58.208Z,39.33
2019-05-17T00:19:00.206Z,38.30
2019-05-17T00:24:01.771Z,37.93
2019-05-17T00:29:03.359Z,38.40
2019-05-17T00:34:07.134Z,38.40
2019-05-17T00:39:08.412Z,38.60
2019-05-17T00:44:10.562Z,37.43
2019-05-17T00:49:12.162Z,37.30
2019-05-17T00:54:13.627Z,37.73
2019-05-17T00:59:17.314Z,36.57
2019-05-17T01:04:19.019Z,38.17
2019-05-17T01:09:21.282Z,36.90
2019-05-17T01:14:22.903Z,36.57
2019-05-17T01:19:26.873Z,37.20
2019-05-17T01:24:28.165Z,37.27
2019-05-17T01:29:29.738Z,37.17
2019-05-17T01:34:31.339Z,36.93
2019-05-17T01:39:33.626Z,34.97
2019-05-17T01:44:36.750Z,35.07
2019-05-17T01:49:38.717Z,35.67
2019-05-17T01:54:40.157Z,34.10
2019-05-17T01:59:41.751Z,35.10
2019-05-17T02:04:43.379Z,35.60
2019-05-17T02:09:47.548Z,34.27
2019-05-17T02:14:48.476Z,33.50
2019-05-17T02:19:50.088Z,32.97
2019-05-17T02:24:52.045Z,33.33
2019-05-17T02:29:53.969Z,32.73
2019-05-17T02:34:55.405Z,31.77
2019-05-17T02:40:03.023Z,31.57
2019-05-17T02:45:03.264Z,31.70
2019-05-17T02:50:06.046Z,30.80
2019-05-17T02:55:08.086Z,32.67
2019-05-17T03:00:13.000Z,31.30
2019-05-17T03:05:13.545Z,31.27
2019-05-17T03:10:23.910Z,31.70
2019-05-17T03:15:18.606Z,32.10
2019-05-17T03:20:22.972Z,30.57
2019-05-17T03:25:24.135Z,31.00
2019-05-17T03:30:26.360Z,30.20
2019-05-17T03:35:28.826Z,30.40
2019-05-17T03:41:01.195Z,29.90
2019-05-17T03:45:34.479Z,29.53
2019-05-17T03:50:36.074Z,28.97
2019-05-17T03:55:38.013Z,29.43
2019-05-17T04:00:42.611Z,30.23
2019-05-17T04:05:43.267Z,30.67
2019-05-17T04:10:44.964Z,28.33
2019-05-17T04:15:46.390Z,32.63
2019-05-17T04:20:48.127Z,28.93
2019-05-17T04:25:52.401Z,27.60
2019-05-17T04:30:53.231Z,29.83
2019-05-17T04:35:54.841Z,29.67
2019-05-17T04:40:56.502Z,30.30
2019-05-17T04:45:58.035Z,30.60
2019-05-17T04:51:02.541Z,29.83
2019-05-17T04:56:03.723Z,28.97
2019-05-17T05:01:05.429Z,29.70
2019-05-17T05:06:07.039Z,31.67
2019-05-17T05:11:09.072Z,27.50
2019-05-17T05:16:13.258Z,28.57
2019-05-17T05:21:13.950Z,29.83
2019-05-17T05:26:15.589Z,32.83
2019-05-17T05:31:17.083Z,32.47
2019-05-17T05:36:18.737Z,31.70
2019-05-17T05:41:22.443Z,30.97
2019-05-17T05:46:23.757Z,34.70
2019-05-17T05:51:25.208Z,31.47
2019-05-17T05:56:26.728Z,29.63
2019-05-17T06:01:28.267Z,37.43
2019-05-17T06:06:32.053Z,37.60
2019-05-17T06:11:33.398Z,30.50
2019-05-17T06:16:34.865Z,32.23
2019-05-17T06:21:36.516Z,32.73
2019-05-17T06:26:38.501Z,32.67
2019-05-17T06:31:40.147Z,32.10
2019-05-17T06:36:42.296Z,33.20
2019-05-17T06:41:44.083Z,31.63
2019-05-17T06:46:45.587Z,29.77
2019-05-17T06:51:47.131Z,28.27
2019-05-17T06:56:48.582Z,31.70
2019-05-17T07:01:50.431Z,30.40
2019-05-17T07:07:10.944Z,28.53
2019-05-17T07:12:12.623Z,27.40
2019-05-17T07:17:14.277Z,27.43
2019-05-17T07:22:15.837Z,28.77
2019-05-17T07:27:19.361Z,26.00
2019-05-17T07:32:21.574Z,27.00
2019-05-17T07:37:23.127Z,27.00
2019-05-17T07:42:24.749Z,24.67
2019-05-17T07:47:26.370Z,25.07
2019-05-17T07:52:29.834Z,24.77
2019-05-17T07:57:31.529Z,24.93
2019-05-17T08:02:33.069Z,27.13
2019-05-17T08:07:40.666Z,28.23
2019-05-17T08:12:44.322Z,26.20
2019-05-17T08:17:50.269Z,28.87
2019-05-17T08:22:51.876Z,27.40
2019-05-17T08:27:53.369Z,27.80
2019-05-17T08:32:54.980Z,24.73
2019-05-17T08:38:00.515Z,25.17
2019-05-17T08:43:02.689Z,24.80
2019-05-17T08:48:04.219Z,23.30
2019-05-17T08:53:05.731Z,23.80
2019-05-17T08:58:09.993Z,25.13
2019-05-17T09:03:11.014Z,22.60
2019-05-17T09:08:12.685Z,23.73
2019-05-17T09:13:14.843Z,23.50
2019-05-17T09:18:16.415Z,24.07
2019-05-17T09:23:19.748Z,23.17
2019-05-17T09:28:21.706Z,26.77
2019-05-17T09:33:23.705Z,24.33
2019-05-17T09:38:26.791Z,25.57
2019-05-17T09:43:29.504Z,26.40
2019-05-17T09:48:31.223Z,25.73
2019-05-17T09:53:32.655Z,27.30
2019-05-17T09:58:34.509Z,26.47
2019-05-17T10:03:36.271Z,27.27
2019-05-17T10:08:39.447Z,29.90
2019-05-17T10:13:40.955Z,28.87
2019-05-17T10:24:20.068Z,29.70
2019-05-17T10:29:22.989Z,31.83
2019-05-17T10:34:24.566Z,30.70
2019-05-17T10:39:26.092Z,40.20
2019-05-17T10:44:43.128Z,41.80
2019-05-17T10:49:33.653Z,30.87
2019-05-17T10:54:35.097Z,33.93
2019-05-17T10:59:55.214Z,31.17
2019-05-17T11:05:15.533Z,38.67
2019-05-17T11:10:35.590Z,30.23
2019-05-17T11:15:55.925Z,28.43
2019-05-17T11:21:15.872Z,37.33
2019-05-17T11:26:36.846Z,26.90
2019-05-17T11:31:56.753Z,23.83
2019-05-17T11:43:15.164Z,24.37
2019-05-17T11:48:35.045Z,22.93
2019-05-17T11:53:55.309Z,28.60
2019-05-17T11:59:15.289Z,24.57
2019-05-17T12:04:35.544Z,22.13
2019-05-17T12:09:55.499Z,21.83
2019-05-17T12:15:15.775Z,19.93
2019-05-17T12:20:35.841Z,19.53
2019-05-17T12:31:54.007Z,18.73
2019-05-17T12:37:14.232Z,18.97
2019-05-17T12:42:34.213Z,18.90
2019-05-17T12:47:54.241Z,19.73
2019-05-17T12:53:14.265Z,18.17
2019-05-17T12:58:34.318Z,19.40
2019-05-17T13:03:54.331Z,18.87
2019-05-17T13:09:14.521Z,18.80
2019-05-17T13:14:34.214Z,20.37
2019-05-17T13:19:54.445Z,19.20
2019-05-17T13:25:14.365Z,18.50
2019-05-17T13:30:34.533Z,20.20
2019-05-17T13:35:54.826Z,23.13
2019-05-17T13:41:15.074Z,22.17
2019-05-17T13:46:35.031Z,21.07
2019-05-17T13:51:55.407Z,21.17
2019-05-17T13:57:15.571Z,22.03
2019-05-17T14:02:35.803Z,21.33
2019-05-17T14:07:55.846Z,23.30
2019-05-17T14:13:16.176Z,26.77
2019-05-17T14:18:36.168Z,27.20
2019-05-17T14:23:56.354Z,24.43
2019-05-17T14:29:07.812Z,29.67
2019-05-17T14:34:10.079Z,26.77
2019-05-17T14:39:11.533Z,26.67
2019-05-17T14:44:13.968Z,25.43
2019-05-17T14:49:15.472Z,27.50
2019-05-17T14:54:17.332Z,27.73
2019-05-17T14:59:18.870Z,26.73
2019-05-17T15:04:20.674Z,27.00
2019-05-17T15:09:22.350Z,28.63
2019-05-17T15:14:23.861Z,27.30
2019-05-17T15:19:26.113Z,27.33
2019-05-17T15:24:28.261Z,27.13
2019-05-17T15:29:29.803Z,26.90
2019-05-17T15:34:31.556Z,28.30
2019-05-17T15:39:33.301Z,29.33
2019-05-17T15:44:37.395Z,29.50
2019-05-17T15:49:39.099Z,30.67
2019-05-17T15:54:41.385Z,31.57
2019-05-17T15:59:42.941Z,30.90
2019-05-17T16:04:44.472Z,30.43
2019-05-17T16:09:49.490Z,30.53
2019-05-17T16:14:51.713Z,30.63
2019-05-17T16:19:53.325Z,30.60
2019-05-17T16:24:55.062Z,30.07
2019-05-17T16:29:56.603Z,30.07
2019-05-17T16:34:58.251Z,30.43
2019-05-17T16:39:59.733Z,30.47
2019-05-17T16:45:01.592Z,32.97
2019-05-17T16:50:07.674Z,31.67
2019-05-17T16:55:09.521Z,31.93
2019-05-17T17:00:25.999Z,30.77
2019-05-17T17:05:27.621Z,31.40
2019-05-17T17:10:29.237Z,31.40
2019-05-17T17:15:30.786Z,31.40
2019-05-17T17:20:32.250Z,31.17
2019-05-17T17:25:33.923Z,32.87
2019-05-17T17:30:35.558Z,31.83
2019-05-17T17:35:37.190Z,32.97
2019-05-17T17:40:49.625Z,33.13
2019-05-17T17:45:53.156Z,35.80
2019-05-17T17:50:54.964Z,35.40
2019-05-17T17:55:57.236Z,32.60
2019-05-17T18:00:59.140Z,36.07
2019-05-17T18:06:00.835Z,35.57
2019-05-17T18:11:02.448Z,38.63
2019-05-17T18:16:04.565Z,39.87
2019-05-17T18:21:06.103Z,39.23
2019-05-17T18:26:07.784Z,36.23
2019-05-17T18:31:09.316Z,38.93
2019-05-17T18:36:10.994Z,37.50
2019-05-17T18:41:12.522Z,39.60
2019-05-17T18:46:14.581Z,40.00
2019-05-17T18:51:16.223Z,37.73
2019-05-17T18:56:20.008Z,43.40
2019-05-17T19:01:21.521Z,40.00
2019-05-17T19:06:23.057Z,39.53
2019-05-17T19:11:24.619Z,42.17
2019-05-17T19:16:26.263Z,38.07
2019-05-17T19:21:27.797Z,38.83
2019-05-17T19:26:29.251Z,37.40
2019-05-17T19:31:30.887Z,39.27
2019-05-17T19:36:32.565Z,38.73
2019-05-17T19:41:34.009Z,40.53
2019-05-17T19:46:35.743Z,39.63
2019-05-17T19:51:37.421Z,40.57
2019-05-17T19:56:39.397Z,39.20
2019-05-17T20:01:41.049Z,38.97
2019-05-17T20:06:42.592Z,42.50
2019-05-17T20:11:44.207Z,37.77
2019-05-17T20:16:45.878Z,38.17
2019-05-17T20:21:47.532Z,39.90
2019-05-17T20:26:49.051Z,40.30
2019-05-17T20:31:51.205Z,40.30
2019-05-17T20:36:52.883Z,40.40
2019-05-17T20:41:57.431Z,41.00
2019-05-17T20:46:58.179Z,40.80
2019-05-17T20:51:59.721Z,41.43
2019-05-17T20:57:01.203Z,41.30
2019-05-17T21:02:03.293Z,42.23
2019-05-17T21:07:04.948Z,40.50
2019-05-17T21:12:06.602Z,40.73
2019-05-17T21:17:08.695Z,42.63
2019-05-17T21:22:10.317Z,41.43
2019-05-17T21:27:11.956Z,43.90
2019-05-17T21:32:13.616Z,44.20
2019-05-17T21:37:15.165Z,42.53
2019-05-17T21:42:16.826Z,43.53
2019-05-17T21:47:21.273Z,41.60
2019-05-17T21:52:22.900Z,41.80
2019-05-17T21:57:31.003Z,56.50
2019-05-17T22:02:33.308Z,39.90
2019-05-17T22:07:34.936Z,40.07
2019-05-17T22:12:36.575Z,43.97
2019-05-17T22:17:38.230Z,42.23
2019-05-17T22:22:39.757Z,43.20
2019-05-17T22:27:41.767Z,39.70
2019-05-17T22:32:43.299Z,37.97
2019-05-17T22:37:44.826Z,51.00
2019-05-17T22:42:46.321Z,46.87
2019-05-17T22:47:48.277Z,40.87
2019-05-17T22:52:52.174Z,42.97
2019-05-17T22:57:54.128Z,41.90
2019-05-17T23:02:55.686Z,40.10
2019-05-17T23:07:57.241Z,57.37
2019-05-17T23:12:58.889Z,46.73
2019-05-17T23:18:00.528Z,47.63
2019-05-17T23:23:02.195Z,39.47
2019-05-17T23:28:03.724Z,35.30
2019-05-17T23:33:05.464Z,35.03
2019-05-17T23:38:07.009Z,53.00
2019-05-17T23:43:08.631Z,37.10
2019-05-17T23:48:10.622Z,38.83
2019-05-17T23:53:14.129Z,40.07
2019-05-17T23:58:15.806Z,41.77
